Time;durP1;ratioP1;P1;durP2;ratioP2;P2;SDS_P1;SDS_P2;PMS_P1;PMS_P2;Temp;Humidity;BMP_temperature;BMP_pressure;BME280_temperature;BME280_humidity;BME280_pressure;Samples;Min_cycle;Max_cycle;Signal;HPM_P1;HPM_P2
2021/07/13 00:01:08;;;;;;;12.40;6.00;;;22.50;82.50;;;;;;5075756;28;20471;-73
2021/07/13 00:03:35;;;;;;;7.73;7.03;;;22.60;82.50;;;;;;5075401;28;20832;-73
2021/07/13 00:06:03;;;;;;;10.60;6.67;;;22.50;81.70;;;;;;5075079;28;20459;-73
2021/07/13 00:08:30;;;;;;;8.60;5.20;;;22.50;81.90;;;;;;5075378;28;20436;-73
2021/07/13 00:10:57;;;;;;;6.97;5.83;;;22.40;82.60;;;;;;5075283;28;20441;-73
2021/07/13 00:13:24;;;;;;;6.30;5.37;;;22.40;83.30;;;;;;5075559;28;20473;-73
2021/07/13 00:15:51;;;;;;;6.80;6.20;;;22.50;83.90;;;;;;5075211;28;20451;-73
2021/07/13 00:18:19;;;;;;;8.83;6.97;;;22.50;84.00;;;;;;5075081;28;20515;-73
2021/07/13 00:20:45;;;;;;;7.40;6.70;;;22.50;84.00;;;;;;5075105;28;20455;-73
2021/07/13 00:23:12;;;;;;;8.00;6.97;;;22.60;83.80;;;;;;5075248;28;20840;-73
2021/07/13 00:25:39;;;;;;;5.90;5.40;;;22.60;83.60;;;;;;5075005;28;20448;-73
2021/07/13 00:28:07;;;;;;;5.97;5.17;;;22.70;83.60;;;;;;5075150;28;20467;-73
2021/07/13 00:30:34;;;;;;;5.20;4.80;;;22.70;83.60;;;;;;5074625;28;20946;-73
2021/07/13 00:33:01;;;;;;;6.17;5.60;;;22.70;83.50;;;;;;5074785;28;20444;-73
2021/07/13 00:35:29;;;;;;;6.40;5.60;;;22.70;83.30;;;;;;5074793;28;20473;-73
2021/07/13 00:37:55;;;;;;;10.10;5.50;;;22.70;83.20;;;;;;5073947;28;20468;-73
2021/07/13 00:40:23;;;;;;;5.70;5.10;;;22.70;83.30;;;;;;5074609;28;20494;-73
2021/07/13 00:42:51;;;;;;;5.60;5.10;;;22.70;83.50;;;;;;5074353;28;20452;-73
2021/07/13 00:45:18;;;;;;;4.80;4.30;;;22.70;83.60;;;;;;5074505;28;20472;-73
2021/07/13 00:47:48;;;;;;;7.80;4.87;;;22.70;83.80;;;;;;5074824;28;20498;-73
2021/07/13 00:50:16;;;;;;;8.23;4.20;;;22.80;83.90;;;;;;5074389;28;20484;-73
2021/07/13 00:52:44;;;;;;;5.73;5.17;;;22.80;84.10;;;;;;5074134;28;20942;-73
2021/07/13 00:55:12;;;;;;;5.63;4.50;;;22.80;84.30;;;;;;5073997;28;20970;-73
2021/07/13 00:57:39;;;;;;;4.57;4.10;;;22.80;84.40;;;;;;5074334;28;20476;-73
2021/07/13 01:00:07;;;;;;;7.93;4.80;;;22.80;84.40;;;;;;5074191;28;20550;-73
2021/07/13 01:02:34;;;;;;;4.47;4.10;;;22.80;84.20;;;;;;5074274;28;20441;-73
2021/07/13 01:05:02;;;;;;;6.80;4.27;;;22.80;84.20;;;;;;5073878;28;20472;-73
2021/07/13 01:07:38;;;;;;;6.13;5.47;;;22.80;84.00;;;;;;5073279;28;20809;-72
2021/07/13 01:10:12;;;;;;;6.33;5.73;;;22.70;84.30;;;;;;5073862;28;20913;-72
2021/07/13 01:12:51;;;;;;;6.17;5.63;;;22.70;83.80;;;;;;5074107;28;20428;-72
2021/07/13 01:15:20;;;;;;;5.90;5.33;;;22.70;83.90;;;;;;5073751;28;21008;-72
2021/07/13 01:17:52;;;;;;;6.47;4.80;;;22.70;84.70;;;;;;5074502;28;20456;-72
2021/07/13 01:20:41;;;;;;;6.50;5.90;;;22.70;85.10;;;;;;5073917;28;20464;-72
2021/07/13 01:23:18;;;;;;;5.83;5.13;;;22.70;85.30;;;;;;5073532;28;20790;-72
2021/07/13 01:26:01;;;;;;;5.53;5.13;;;22.70;85.30;;;;;;5073929;28;20428;-72
2021/07/13 01:28:33;;;;;;;5.50;4.97;;;22.70;85.30;;;;;;5074069;28;20428;-72
2021/07/13 01:31:04;;;;;;;5.67;5.17;;;22.70;85.40;;;;;;5073828;28;20440;-72
2021/07/13 01:33:32;;;;;;;9.40;4.80;;;22.70;85.60;;;;;;5073678;28;20471;-72
2021/07/13 01:36:05;;;;;;;7.93;4.63;;;22.70;85.70;;;;;;5073704;28;20452;-72
2021/07/13 01:38:35;;;;;;;5.40;4.90;;;22.60;85.50;;;;;;5073679;28;20876;-72
2021/07/13 01:41:06;;;;;;;5.37;4.97;;;22.60;85.60;;;;;;5073669;28;20447;-72
2021/07/13 01:43:37;;;;;;;5.40;4.90;;;22.60;85.70;;;;;;5073574;28;20479;-72
2021/07/13 01:46:04;;;;;;;6.17;5.53;;;22.50;85.60;;;;;;5073305;28;20445;-72
2021/07/13 01:48:33;;;;;;;5.30;4.77;;;22.50;85.60;;;;;;5073177;28;20961;-72
2021/07/13 01:51:01;;;;;;;4.77;4.37;;;22.50;85.60;;;;;;5072511;28;20452;-72
2021/07/13 01:53:29;;;;;;;5.43;4.97;;;22.50;85.70;;;;;;5072303;28;21000;-72
2021/07/13 01:55:56;;;;;;;3.97;3.60;;;22.50;85.40;;;;;;5072661;28;20510;-72
2021/07/13 01:58:25;;;;;;;4.13;3.50;;;22.50;85.40;;;;;;5072597;28;20513;-72
2021/07/13 02:00:55;;;;;;;4.83;4.33;;;22.50;85.30;;;;;;5072654;28;20440;-72
2021/07/13 02:03:24;;;;;;;7.47;4.90;;;22.50;85.30;;;;;;5072310;28;20466;-72
2021/07/13 02:05:51;;;;;;;5.47;5.07;;;22.50;86.30;;;;;;5072289;28;20890;-72
2021/07/13 02:08:19;;;;;;;5.23;4.77;;;22.50;85.40;;;;;;5072531;28;20451;-72
2021/07/13 02:10:46;;;;;;;4.73;4.30;;;22.50;85.60;;;;;;5072173;28;20794;-72
2021/07/13 02:13:14;;;;;;;5.37;4.80;;;22.40;85.60;;;;;;5072383;28;20444;-72
2021/07/13 02:15:42;;;;;;;5.30;4.73;;;22.40;85.70;;;;;;5072145;28;20954;-72
2021/07/13 02:18:11;;;;;;;5.27;4.70;;;22.40;85.90;;;;;;5072407;28;20445;-72
2021/07/13 02:20:38;;;;;;;5.50;4.93;;;22.40;86.10;;;;;;5072284;28;20476;-72
2021/07/13 02:23:05;;;;;;;5.43;5.03;;;22.40;86.40;;;;;;5072260;28;20444;-72
2021/07/13 02:25:32;;;;;;;5.20;4.80;;;22.40;86.40;;;;;;5072353;28;20444;-72
2021/07/13 02:28:05;;;;;;;6.00;5.50;;;22.30;86.30;;;;;;5072295;28;20444;-72
2021/07/13 02:30:35;;;;;;;5.80;5.23;;;22.30;86.30;;;;;;5072325;28;20425;-72
2021/07/13 02:33:06;;;;;;;6.30;5.80;;;22.30;86.20;;;;;;5072145;28;20440;-72
2021/07/13 02:35:40;;;;;;;6.40;5.80;;;22.30;86.40;;;;;;5072143;28;20910;-72
2021/07/13 02:38:09;;;;;;;5.47;4.97;;;22.20;86.40;;;;;;5072185;28;20499;-72
2021/07/13 02:40:36;;;;;;;5.53;5.03;;;22.10;86.70;;;;;;5072026;28;20483;-73
2021/07/13 02:43:04;;;;;;;6.33;5.67;;;22.10;86.90;;;;;;5072011;28;20791;-74
2021/07/13 02:45:31;;;;;;;6.43;5.70;;;22.10;87.10;;;;;;5071741;28;20926;-74
2021/07/13 02:47:59;;;;;;;5.90;5.43;;;22.10;87.20;;;;;;5072804;28;20471;-74
2021/07/13 02:50:30;;;;;;;6.70;6.13;;;22.10;87.40;;;;;;5025936;28;1329153;-73
2021/07/13 02:52:59;;;;;;;6.60;5.63;;;22.10;87.50;;;;;;5072670;28;20562;-73
2021/07/13 02:55:28;;;;;;;7.47;6.77;;;22.10;87.70;;;;;;5072602;28;20926;-73
2021/07/13 02:57:56;;;;;;;7.63;7.00;;;22.10;88.50;;;;;;5072619;28;20930;-73
2021/07/13 03:00:23;;;;;;;8.10;7.50;;;22.00;87.70;;;;;;5074624;28;20476;-73
2021/07/13 03:02:51;;;;;;;10.50;7.10;;;21.90;87.60;;;;;;5076279;28;20443;-73
2021/07/13 03:05:21;;;;;;;7.27;6.57;;;21.80;87.90;;;;;;5076421;28;20468;-73
2021/07/13 03:07:49;;;;;;;7.37;6.67;;;21.80;88.20;;;;;;5076759;28;20451;-73
2021/07/13 03:10:20;;;;;;;7.43;6.83;;;21.80;88.60;;;;;;5076462;28;20448;-73
2021/07/13 03:12:48;;;;;;;8.57;7.77;;;21.80;88.90;;;;;;5076383;28;20486;-73
2021/07/13 03:15:15;;;;;;;13.30;8.47;;;21.70;88.80;;;;;;5076267;28;20469;-75
2021/07/13 03:17:42;;;;;;;8.20;7.50;;;21.60;88.80;;;;;;5076327;28;20447;-73
2021/07/13 03:20:09;;;;;;;8.90;8.07;;;21.60;89.40;;;;;;5076161;28;20533;-73
2021/07/13 03:22:41;;;;;;;12.10;8.13;;;21.50;89.50;;;;;;5076438;28;20436;-73
2021/07/13 03:25:12;;;;;;;9.63;8.73;;;21.50;89.70;;;;;;5076112;28;20869;-73
2021/07/13 03:27:41;;;;;;;9.97;9.10;;;21.50;89.70;;;;;;5076136;28;20425;-73
2021/07/13 03:30:09;;;;;;;10.10;9.30;;;21.50;89.80;;;;;;5076110;28;20452;-73
2021/07/13 03:32:37;;;;;;;8.87;8.07;;;21.50;90.00;;;;;;5076068;28;20452;-73
2021/07/13 03:35:05;;;;;;;12.00;8.77;;;21.50;90.00;;;;;;5075579;28;20974;-73
2021/07/13 03:37:32;;;;;;;11.53;10.40;;;21.50;90.00;;;;;;5075933;28;20448;-73
2021/07/13 03:40:00;;;;;;;11.83;10.73;;;21.50;90.10;;;;;;5075838;28;20477;-73
2021/07/13 03:42:26;;;;;;;12.23;11.13;;;21.50;90.10;;;;;;5075852;28;20817;-73
2021/07/13 03:44:54;;;;;;;12.93;10.20;;;21.50;90.30;;;;;;5076022;28;20465;-73
2021/07/13 03:47:21;;;;;;;17.50;9.97;;;21.40;90.20;;;;;;5075757;28;20445;-73
2021/07/13 03:49:49;;;;;;;11.90;10.87;;;21.40;90.30;;;;;;5075598;28;20452;-73
2021/07/13 03:52:17;;;;;;;10.63;9.73;;;21.40;90.50;;;;;;5075696;28;20441;-73
2021/07/13 03:54:44;;;;;;;11.67;10.63;;;21.40;90.50;;;;;;5075578;28;20469;-73
2021/07/13 03:57:11;;;;;;;11.60;10.60;;;21.40;90.50;;;;;;5075615;28;20501;-73
2021/07/13 03:59:37;;;;;;;10.70;9.67;;;21.40;90.50;;;;;;5075492;28;20476;-73
2021/07/13 04:02:06;;;;;;;10.70;9.60;;;21.40;90.40;;;;;;5075487;28;20440;-73
2021/07/13 04:04:32;;;;;;;13.10;11.90;;;21.30;90.50;;;;;;5075429;28;20471;-73
2021/07/13 04:06:59;;;;;;;11.40;10.37;;;21.30;90.60;;;;;;5075086;28;20957;-73
2021/07/13 04:09:26;;;;;;;10.97;9.87;;;21.30;90.80;;;;;;5075359;28;20858;-73
2021/07/13 04:11:52;;;;;;;12.00;10.20;;;21.30;90.90;;;;;;5074146;28;20452;-73
2021/07/13 04:14:19;;;;;;;12.53;11.27;;;21.30;90.90;;;;;;5075232;28;20475;-73
2021/07/13 04:16:46;;;;;;;13.07;11.67;;;21.20;90.70;;;;;;5075230;28;20440;-73
2021/07/13 04:19:14;;;;;;;12.30;11.07;;;21.20;91.00;;;;;;5075074;28;20816;-73
2021/07/13 04:21:40;;;;;;;13.50;12.20;;;21.10;91.10;;;;;;5075140;28;20429;-73
2021/07/13 04:24:07;;;;;;;13.20;11.90;;;21.10;91.30;;;;;;5074719;28;20935;-74
2021/07/13 04:26:34;;;;;;;12.60;11.50;;;21.00;91.40;;;;;;5074981;28;20515;-74
2021/07/13 04:29:01;;;;;;;13.17;11.93;;;21.00;91.60;;;;;;5074972;28;20447;-74
2021/07/13 04:31:27;;;;;;;12.80;11.50;;;21.10;91.70;;;;;;5074798;28;20933;-74
2021/07/13 04:33:54;;;;;;;12.40;11.17;;;21.10;91.70;;;;;;5074815;28;20460;-74
2021/07/13 04:36:22;;;;;;;12.33;11.23;;;21.20;91.70;;;;;;5074823;28;20445;-73
2021/07/13 04:38:49;;;;;;;12.53;11.53;;;21.20;91.70;;;;;;5074729;28;20819;-73
2021/07/13 04:41:16;;;;;;;14.27;12.73;;;21.30;91.60;;;;;;5074632;28;20472;-73
2021/07/13 04:43:42;;;;;;;12.10;11.17;;;21.30;91.70;;;;;;5074584;28;20491;-73
2021/07/13 04:46:09;;;;;;;13.70;12.60;;;21.30;91.70;;;;;;5074608;28;20452;-73
2021/07/13 04:48:36;;;;;;;12.10;10.93;;;21.30;91.70;;;;;;5074567;28;20494;-73
2021/07/13 04:51:02;;;;;;;13.23;12.03;;;21.30;91.70;;;;;;5074105;28;20456;-74
2021/07/13 04:53:31;;;;;;;13.50;11.77;;;21.30;91.70;;;;;;5074394;28;20460;-73
2021/07/13 04:55:58;;;;;;;14.97;13.57;;;21.30;91.70;;;;;;5075297;28;20536;-73
2021/07/13 04:58:24;;;;;;;12.37;11.17;;;21.40;91.70;;;;;;5074077;28;20926;-74
2021/07/13 05:00:51;;;;;;;12.87;11.73;;;21.40;91.60;;;;;;5074276;28;20551;-73
2021/07/13 05:03:18;;;;;;;13.77;12.37;;;21.40;91.60;;;;;;5074233;28;20445;-73
2021/07/13 05:05:44;;;;;;;13.53;12.23;;;21.40;91.60;;;;;;5074232;28;20450;-73
2021/07/13 05:08:11;;;;;;;13.93;12.73;;;21.40;91.70;;;;;;5074150;28;20444;-73
2021/07/13 05:10:39;;;;;;;13.30;11.90;;;21.40;91.60;;;;;;5074133;28;20445;-73
2021/07/13 05:13:09;;;;;;;12.90;11.70;;;21.40;91.70;;;;;;5073728;28;20935;-74
2021/07/13 05:15:36;;;;;;;13.70;12.40;;;21.40;91.70;;;;;;5074077;28;20441;-73
2021/07/13 05:18:03;;;;;;;14.40;13.10;;;21.40;91.70;;;;;;5074020;28;20490;-74
2021/07/13 05:20:30;;;;;;;9.73;8.50;;;21.40;91.70;;;;;;5074135;28;20476;-73
2021/07/13 05:22:59;;;;;;;9.80;6.27;;;21.40;91.70;;;;;;5073310;28;20946;-73
2021/07/13 05:25:26;;;;;;;12.00;8.50;;;21.40;91.10;;;;;;5074122;28;20440;-73
2021/07/13 05:27:54;;;;;;;13.60;12.50;;;21.50;90.80;;;;;;5073944;28;20433;-72
2021/07/13 05:30:23;;;;;;;12.83;11.30;;;21.60;90.70;;;;;;5073821;28;20436;-72
2021/07/13 05:32:52;;;;;;;15.10;13.80;;;21.60;90.70;;;;;;5073804;28;20459;-73
2021/07/13 05:35:19;;;;;;;14.70;13.20;;;21.60;90.70;;;;;;5073727;28;20465;-73
2021/07/13 05:37:45;;;;;;;14.70;13.40;;;21.50;90.90;;;;;;5073663;28;20453;-73
2021/07/13 05:40:13;;;;;;;14.23;13.03;;;21.40;91.20;;;;;;5073646;28;20511;-73
2021/07/13 05:42:40;;;;;;;15.00;13.57;;;21.40;91.50;;;;;;5073721;28;20467;-73
2021/07/13 05:45:09;;;;;;;15.53;13.93;;;21.20;91.60;;;;;;5073298;28;21027;-73
2021/07/13 05:47:36;;;;;;;15.33;13.83;;;21.10;91.90;;;;;;5073679;28;20432;-72
2021/07/13 05:50:04;;;;;;;16.60;14.33;;;21.00;92.20;;;;;;5073440;28;20464;-72
2021/07/13 05:52:30;;;;;;;15.83;14.43;;;21.00;92.30;;;;;;5073562;28;20456;-72
2021/07/13 05:54:57;;;;;;;16.20;14.40;;;21.00;92.50;;;;;;5073473;28;20461;-72
2021/07/13 05:57:26;;;;;;;15.50;14.00;;;21.00;92.60;;;;;;5073483;28;20784;-72
2021/07/13 05:59:53;;;;;;;15.33;13.67;;;21.00;92.60;;;;;;5073379;28;20509;-72
2021/07/13 06:02:21;;;;;;;14.70;13.27;;;21.10;92.70;;;;;;5073495;28;20425;-72
2021/07/13 06:04:48;;;;;;;15.57;14.10;;;21.10;92.60;;;;;;5073366;28;20487;-72
2021/07/13 06:07:14;;;;;;;17.10;14.30;;;21.10;92.70;;;;;;5073652;28;20441;-72
2021/07/13 06:09:41;;;;;;;14.87;13.50;;;21.20;92.80;;;;;;5073374;28;20471;-72
2021/07/13 06:12:08;;;;;;;17.07;15.37;;;21.20;92.80;;;;;;5073597;28;20441;-72
2021/07/13 06:14:36;;;;;;;19.80;16.47;;;21.20;92.70;;;;;;5073285;28;20464;-72
2021/07/13 06:17:03;;;;;;;18.30;16.70;;;21.20;92.70;;;;;;5073322;28;20803;-71
2021/07/13 06:19:32;;;;;;;18.07;16.27;;;21.10;92.70;;;;;;5073314;28;20448;-72
2021/07/13 06:21:58;;;;;;;19.70;17.80;;;21.10;92.80;;;;;;5073188;28;20472;-72
2021/07/13 06:24:25;;;;;;;19.17;17.47;;;21.10;92.90;;;;;;5073143;28;20460;-73
2021/07/13 06:26:52;;;;;;;18.63;16.93;;;21.10;93.00;;;;;;5073235;28;20433;-73
2021/07/13 06:29:19;;;;;;;19.37;17.43;;;21.10;93.10;;;;;;5073199;28;20440;-71
2021/07/13 06:31:46;;;;;;;20.80;18.70;;;21.00;93.10;;;;;;5073195;28;20441;-72
2021/07/13 06:34:12;;;;;;;18.40;16.40;;;20.90;93.20;;;;;;5073075;28;20468;-72
2021/07/13 06:36:40;;;;;;;20.03;17.93;;;20.90;93.40;;;;;;5077116;28;20448;-72
2021/07/13 06:39:07;;;;;;;17.20;15.40;;;20.90;93.50;;;;;;5077112;28;20440;-72
2021/07/13 06:41:34;;;;;;;20.27;18.27;;;20.90;93.50;;;;;;5076608;28;20993;-72
2021/07/13 06:44:01;;;;;;;18.33;16.50;;;21.00;93.60;;;;;;5076948;28;20464;-72
2021/07/13 06:46:27;;;;;;;19.80;17.33;;;21.10;93.70;;;;;;5076929;28;20471;-72
2021/07/13 06:48:54;;;;;;;19.50;17.40;;;21.20;93.70;;;;;;5076520;28;20968;-72
2021/07/13 06:51:21;;;;;;;17.40;15.90;;;21.20;93.60;;;;;;5076383;28;20868;-72
2021/07/13 06:53:49;;;;;;;18.50;16.77;;;21.20;93.60;;;;;;5076738;28;20456;-72
2021/07/13 06:56:16;;;;;;;18.73;16.77;;;21.30;93.80;;;;;;5076692;28;20440;-72
2021/07/13 06:58:42;;;;;;;18.77;16.57;;;21.40;93.40;;;;;;5076673;28;20938;-72
2021/07/13 07:01:09;;;;;;;18.83;17.00;;;21.30;93.10;;;;;;5076541;28;20475;-72
2021/07/13 07:03:36;;;;;;;16.47;15.00;;;21.30;93.00;;;;;;5076183;28;21000;-72
2021/07/13 07:06:03;;;;;;;17.60;15.80;;;21.30;92.90;;;;;;5076127;28;20451;-72
2021/07/13 07:08:29;;;;;;;18.03;16.33;;;21.30;92.70;;;;;;5076160;28;20451;-72
2021/07/13 07:10:57;;;;;;;18.27;16.57;;;21.30;92.80;;;;;;5076432;28;20436;-73
2021/07/13 07:13:24;;;;;;;17.47;15.80;;;21.40;93.00;;;;;;5076366;28;20468;-73
2021/07/13 07:15:51;;;;;;;15.20;13.90;;;21.50;93.10;;;;;;5076344;28;20447;-73
2021/07/13 07:18:18;;;;;;;17.67;15.80;;;21.60;93.00;;;;;;5076009;28;20968;-73
2021/07/13 07:20:44;;;;;;;16.77;15.07;;;21.70;93.00;;;;;;5076233;28;20480;-73
2021/07/13 07:23:11;;;;;;;16.53;13.80;;;21.70;92.90;;;;;;5075856;28;20433;-73
2021/07/13 07:25:38;;;;;;;12.30;11.20;;;21.80;92.80;;;;;;5076172;28;20445;-73
2021/07/13 07:28:06;;;;;;;12.73;11.70;;;22.00;92.50;;;;;;5076139;28;20440;-73
2021/07/13 07:30:33;;;;;;;12.63;11.40;;;22.00;92.00;;;;;;5075780;28;20954;-73
2021/07/13 07:33:00;;;;;;;11.80;10.70;;;22.10;92.10;;;;;;5076134;28;20437;-73
2021/07/13 07:35:28;;;;;;;13.73;12.50;;;22.10;91.80;;;;;;5075998;28;20455;-73
2021/07/13 07:37:55;;;;;;;14.00;12.80;;;22.20;91.70;;;;;;5076038;28;20471;-73
2021/07/13 07:40:23;;;;;;;13.87;12.60;;;22.30;91.70;;;;;;5075889;28;20425;-73
2021/07/13 07:42:51;;;;;;;14.53;13.03;;;22.40;91.50;;;;;;5075657;28;20891;-73
2021/07/13 07:45:20;;;;;;;14.90;13.50;;;22.50;91.10;;;;;;5076673;28;20479;-73
2021/07/13 07:47:48;;;;;;;13.23;12.00;;;22.50;90.90;;;;;;5075518;28;20797;-73
2021/07/13 07:50:16;;;;;;;14.23;12.93;;;22.50;90.80;;;;;;5075566;28;20471;-73
2021/07/13 07:52:43;;;;;;;12.77;11.47;;;22.50;90.70;;;;;;5075747;28;20425;-73
2021/07/13 07:55:12;;;;;;;14.83;13.30;;;22.50;90.70;;;;;;5075889;28;20457;-73
2021/07/13 07:57:39;;;;;;;16.33;14.83;;;22.40;90.60;;;;;;5075663;28;20428;-73
2021/07/13 08:00:08;;;;;;;16.47;14.90;;;22.40;90.40;;;;;;5075581;28;20429;-73
2021/07/13 08:02:36;;;;;;;14.50;12.73;;;22.30;90.50;;;;;;5075471;28;20475;-73
2021/07/13 08:05:03;;;;;;;14.00;12.77;;;22.20;90.40;;;;;;5075420;28;20471;-73
2021/07/13 08:07:30;;;;;;;16.80;15.30;;;22.20;90.70;;;;;;5075430;28;20441;-74
2021/07/13 08:09:57;;;;;;;14.93;13.40;;;22.20;91.00;;;;;;5075062;28;20967;-74
2021/07/13 08:12:24;;;;;;;15.60;14.13;;;22.20;91.10;;;;;;5075342;28;20440;-73
2021/07/13 08:14:51;;;;;;;14.57;13.13;;;22.20;91.20;;;;;;5075240;28;20498;-73
2021/07/13 08:17:19;;;;;;;13.77;12.57;;;22.30;91.30;;;;;;5075543;28;20439;-73
2021/07/13 08:19:47;;;;;;;16.00;14.40;;;22.30;91.20;;;;;;5075163;28;20444;-72
2021/07/13 08:22:14;;;;;;;13.87;12.70;;;22.40;91.30;;;;;;5075329;28;20476;-72
2021/07/13 08:24:41;;;;;;;15.47;13.80;;;22.50;91.30;;;;;;5075041;28;20460;-72
2021/07/13 08:27:09;;;;;;;16.03;14.63;;;22.60;91.30;;;;;;5075012;28;20444;-73
2021/07/13 08:29:37;;;;;;;12.13;10.97;;;22.70;91.20;;;;;;5074942;28;20440;-74
2021/07/13 08:32:05;;;;;;;11.03;10.00;;;22.70;91.00;;;;;;5074896;28;20441;-73
2021/07/13 08:34:34;;;;;;;11.33;10.43;;;22.70;90.70;;;;;;5074455;28;20970;-72
2021/07/13 08:37:04;;;;;;;11.53;10.63;;;22.70;90.50;;;;;;5074552;28;20938;-72
2021/07/13 08:39:30;;;;;;;10.27;9.27;;;22.70;90.40;;;;;;5074803;28;20433;-73
2021/07/13 08:41:58;;;;;;;11.77;10.67;;;22.60;90.40;;;;;;5074363;28;20467;-73
2021/07/13 08:44:25;;;;;;;10.10;9.10;;;22.60;90.50;;;;;;5074577;28;20480;-73
2021/07/13 08:46:52;;;;;;;10.13;9.23;;;22.50;90.50;;;;;;5074664;28;20448;-73
2021/07/13 08:49:19;;;;;;;10.33;9.23;;;22.50;90.50;;;;;;5074490;28;20456;-73
2021/07/13 08:51:47;;;;;;;10.27;9.37;;;22.50;90.60;;;;;;5074620;28;20429;-72
2021/07/13 08:54:15;;;;;;;10.43;9.53;;;22.50;90.70;;;;;;5074453;28;20465;-72
2021/07/13 08:56:42;;;;;;;11.60;10.40;;;22.50;90.80;;;;;;5074070;28;21046;-72
2021/07/13 08:59:09;;;;;;;10.00;9.20;;;22.50;90.80;;;;;;5074759;28;20798;-76
2021/07/13 09:01:36;;;;;;;10.73;9.47;;;22.50;90.80;;;;;;5074398;28;20464;-76
2021/07/13 09:04:06;;;;;;;12.10;11.10;;;22.40;90.80;;;;;;5074303;28;20873;-75
2021/07/13 09:06:52;;;;;;;10.47;9.47;;;22.40;90.80;;;;;;5074358;28;20444;-76
2021/07/13 09:09:28;;;;;;;12.37;11.40;;;22.40;90.90;;;;;;5074392;28;20425;-76
2021/07/13 09:12:14;;;;;;;11.00;9.90;;;22.30;91.00;;;;;;5073918;28;20423;-76
2021/07/13 09:14:54;;;;;;;12.37;11.20;;;22.30;91.20;;;;;;5074254;28;20556;-76
2021/07/13 09:17:40;;;;;;;12.03;10.10;;;22.30;91.30;;;;;;5074156;28;20478;-76
2021/07/13 09:20:22;;;;;;;12.47;11.20;;;22.30;91.30;;;;;;5073792;28;20428;-76
2021/07/13 09:22:53;;;;;;;13.10;11.90;;;22.30;91.30;;;;;;5074063;28;20460;-76
2021/07/13 09:25:31;;;;;;;16.57;14.97;;;22.30;91.40;;;;;;5073858;28;20487;-76
2021/07/13 09:28:09;;;;;;;13.00;11.80;;;22.30;91.50;;;;;;5073998;28;20436;-76
2021/07/13 09:30:36;;;;;;;13.70;12.50;;;22.40;91.50;;;;;;5074008;28;20448;-75
2021/07/13 09:33:15;;;;;;;13.43;12.17;;;22.40;91.40;;;;;;5074381;28;20425;-75
2021/07/13 09:36:08;;;;;;;13.33;11.97;;;22.50;91.40;;;;;;5074200;28;20464;-76
2021/07/13 09:38:37;;;;;;;14.30;13.10;;;22.50;91.20;;;;;;5074145;28;20792;-75
2021/07/13 09:41:07;;;;;;;15.17;12.90;;;22.50;91.10;;;;;;5073475;28;20992;-75
2021/07/13 09:43:49;;;;;;;12.10;11.13;;;22.60;91.20;;;;;;5073869;28;20475;-75
2021/07/13 09:46:26;;;;;;;11.97;10.70;;;22.60;91.20;;;;;;5073808;28;20503;-75
2021/07/13 09:49:14;;;;;;;13.77;12.57;;;22.60;91.30;;;;;;5074649;28;20432;-75
2021/07/13 09:51:42;;;;;;;14.30;12.87;;;22.70;91.30;;;;;;5073471;28;20865;-76
2021/07/13 09:54:43;;;;;;;17.00;15.50;;;22.70;91.10;;;;;;5073250;28;20861;-75
2021/07/13 09:57:16;;;;;;;15.13;13.50;;;22.90;91.20;;;;;;5011687;28;20507;-76
2021/07/13 09:59:44;;;;;;;15.33;13.53;;;22.90;91.10;;;;;;5011984;28;20465;-76
2021/07/13 10:02:11;;;;;;;14.50;13.00;;;23.00;91.00;;;;;;5042062;28;21024;-76
2021/07/13 10:04:39;;;;;;;18.17;16.27;;;23.10;91.00;;;;;;5073440;28;20473;-76
2021/07/13 10:07:09;;;;;;;17.27;15.67;;;23.20;90.90;;;;;;5073125;28;20934;-76
2021/07/13 10:09:43;;;;;;;17.77;16.10;;;23.20;90.80;;;;;;5072389;28;20479;-76
2021/07/13 10:12:14;;;;;;;20.67;18.30;;;23.30;90.80;;;;;;5073612;28;20440;-76
2021/07/13 10:14:43;;;;;;;16.80;15.10;;;23.40;90.70;;;;;;5073240;28;20872;-76
2021/07/13 10:17:11;;;;;;;17.20;15.53;;;23.40;90.60;;;;;;5073707;28;20451;-76
2021/07/13 10:19:44;;;;;;;18.63;16.80;;;23.50;90.30;;;;;;5073440;28;20857;-76
2021/07/13 10:22:12;;;;;;;18.80;16.47;;;23.60;90.30;;;;;;5073553;28;20460;-76
2021/07/13 10:24:39;;;;;;;17.00;15.50;;;23.80;90.40;;;;;;5073434;28;20465;-76
2021/07/13 10:27:14;;;;;;;17.60;16.00;;;24.00;90.20;;;;;;5073388;28;20452;-75
2021/07/13 10:29:44;;;;;;;21.37;19.30;;;24.20;89.80;;;;;;5073287;28;21027;-76
2021/07/13 10:32:36;;;;;;;19.17;17.37;;;24.40;89.20;;;;;;5073367;28;20482;-75
2021/07/13 10:35:12;;;;;;;21.43;19.33;;;24.70;88.50;;;;;;5073248;28;20468;-76
2021/07/13 10:37:41;;;;;;;19.57;17.63;;;24.90;87.70;;;;;;5073188;28;20431;-76
2021/07/13 10:40:10;;;;;;;18.73;17.00;;;25.20;86.60;;;;;;5073182;28;20461;-76
2021/07/13 10:42:54;;;;;;;23.97;21.80;;;25.40;85.50;;;;;;5073366;28;20473;-76
2021/07/13 10:45:26;;;;;;;22.80;20.80;;;25.50;84.40;;;;;;5073061;28;20465;-76
2021/07/13 10:48:05;;;;;;;23.33;21.27;;;25.70;83.60;;;;;;5073127;28;20435;-76
2021/07/13 10:50:51;;;;;;;20.57;18.77;;;25.90;82.70;;;;;;5072898;28;20471;-76
2021/07/13 10:53:28;;;;;;;27.50;24.90;;;26.00;81.60;;;;;;5072914;28;20440;-76
2021/07/13 10:55:57;;;;;;;27.70;25.03;;;26.10;80.90;;;;;;5073198;28;20431;-76
2021/07/13 10:58:46;;;;;;;27.23;24.87;;;26.40;80.90;;;;;;5073030;28;20440;-76
2021/07/13 11:01:21;;;;;;;25.87;23.27;;;26.70;80.10;;;;;;5067651;28;20452;-76
2021/07/13 11:03:59;;;;;;;29.37;26.80;;;27.00;78.80;;;;;;5073546;28;20872;-76
2021/07/13 11:06:50;;;;;;;26.80;24.40;;;27.30;77.50;;;;;;5072549;28;20897;-76
2021/07/13 11:09:22;;;;;;;27.37;25.07;;;27.60;76.40;;;;;;5072522;28;20987;-76
2021/07/13 11:11:48;;;;;;;26.53;24.17;;;27.80;74.70;;;;;;5072833;28;20425;-76
2021/07/13 11:14:16;;;;;;;24.03;21.97;;;28.00;73.60;;;;;;5072936;28;20476;-76
2021/07/13 11:16:45;;;;;;;26.07;23.80;;;28.10;72.60;;;;;;5072758;28;20444;-76
2021/07/13 11:19:15;;;;;;;26.27;23.97;;;28.30;71.40;;;;;;5072772;28;20452;-76
2021/07/13 11:21:44;;;;;;;26.70;24.50;;;28.40;70.80;;;;;;5075012;28;20465;-76
2021/07/13 11:24:13;;;;;;;27.20;25.03;;;28.40;70.00;;;;;;5076269;28;20607;-76
2021/07/13 11:26:42;;;;;;;24.53;22.63;;;28.40;69.70;;;;;;5076262;28;20469;-76
2021/07/13 11:29:17;;;;;;;27.97;25.67;;;28.40;69.60;;;;;;5076162;28;21036;-76
2021/07/13 11:31:48;;;;;;;31.40;28.60;;;28.40;70.20;;;;;;5076148;28;20425;-76
2021/07/13 11:34:16;;;;;;;27.33;25.00;;;28.30;69.90;;;;;;5076317;28;20460;-76
2021/07/13 11:36:45;;;;;;;32.60;29.90;;;28.30;69.90;;;;;;5076083;28;20448;-76
2021/07/13 11:39:13;;;;;;;28.83;26.47;;;28.20;70.00;;;;;;5075989;28;20815;-76
2021/07/13 11:41:41;;;;;;;27.80;25.50;;;28.20;70.50;;;;;;5075997;28;20477;-76
2021/07/13 11:44:10;;;;;;;27.10;25.00;;;28.10;70.40;;;;;;5075985;28;20556;-76
2021/07/13 11:46:39;;;;;;;28.83;26.33;;;28.00;70.40;;;;;;5075579;28;20436;-76
2021/07/13 11:49:08;;;;;;;30.70;28.17;;;27.80;70.50;;;;;;5075907;28;20441;-76
2021/07/13 11:51:37;;;;;;;28.43;26.10;;;27.70;71.00;;;;;;5075879;28;20429;-76
2021/07/13 11:54:05;;;;;;;30.87;28.10;;;27.50;71.90;;;;;;5075643;28;20461;-76
2021/07/13 11:56:34;;;;;;;33.43;30.37;;;27.40;72.30;;;;;;5075659;28;20445;-76
2021/07/13 11:59:02;;;;;;;31.97;28.80;;;27.20;72.80;;;;;;5075656;28;20455;-76
2021/07/13 12:01:30;;;;;;;28.50;26.20;;;27.10;73.40;;;;;;5075551;28;20448;-76
2021/07/13 12:04:02;;;;;;;32.57;29.60;;;27.00;73.70;;;;;;5075180;28;20883;-76
2021/07/13 12:06:30;;;;;;;31.77;28.83;;;26.90;74.00;;;;;;5075384;28;20429;-76
2021/07/13 12:08:58;;;;;;;32.03;29.37;;;26.80;74.40;;;;;;5075093;28;20952;-76
2021/07/13 12:11:26;;;;;;;30.70;27.90;;;26.80;74.90;;;;;;5075130;28;20960;-76
2021/07/13 12:13:54;;;;;;;31.63;28.90;;;26.70;75.50;;;;;;5075249;28;20464;-76
2021/07/13 12:16:24;;;;;;;32.47;29.73;;;26.70;75.50;;;;;;5075281;28;20448;-76
2021/07/13 12:18:52;;;;;;;28.90;26.40;;;26.60;75.70;;;;;;5075281;28;20432;-76
2021/07/13 12:21:21;;;;;;;31.17;28.33;;;26.60;76.10;;;;;;5075181;28;20432;-76
2021/07/13 12:23:52;;;;;;;34.60;31.60;;;26.60;76.00;;;;;;5074986;28;20488;-76
2021/07/13 12:26:23;;;;;;;32.80;30.07;;;26.70;76.50;;;;;;5075107;28;20429;-76
2021/07/13 12:29:10;;;;;;;27.63;25.33;;;26.70;76.50;;;;;;5075241;28;20441;-76
2021/07/13 12:31:38;;;;;;;28.50;26.10;;;26.90;76.30;;;;;;5074406;28;20910;-76
2021/07/13 12:34:15;;;;;;;30.80;28.23;;;27.00;75.40;;;;;;5073995;28;20841;-76
2021/07/13 12:36:41;;;;;;;26.93;24.60;;;27.10;75.20;;;;;;5074942;28;20428;-76
2021/07/13 12:39:18;;;;;;;29.10;26.70;;;27.20;74.60;;;;;;5074519;28;20898;-76
2021/07/13 12:41:45;;;;;;;23.13;21.20;;;27.30;74.20;;;;;;5074723;28;20445;-76
2021/07/13 12:44:29;;;;;;;24.37;22.43;;;27.40;73.70;;;;;;5074670;28;20492;-76